createdAt,value
2019-03-23T00:00:14.328Z,187.12
2019-03-23T00:02:18.245Z,171.40
2019-03-23T00:04:21.822Z,203.62
2019-03-23T00:06:30.876Z,436.58
2019-03-23T00:08:30.932Z,355.37
2019-03-23T00:10:34.413Z,290.62
2019-03-23T00:12:38.357Z,145.97
2019-03-23T00:14:42.264Z,183.30
2019-03-23T00:16:46.676Z,195.35
2019-03-23T00:18:50.248Z,322.42
2019-03-23T00:20:53.721Z,189.70
2019-03-23T00:22:57.298Z,179.42
2019-03-23T00:25:01.173Z,226.10
2019-03-23T00:27:04.963Z,209.80
2019-03-23T00:29:08.556Z,256.32
2019-03-23T00:31:12.022Z,262.45
2019-03-23T00:33:15.910Z,186.32
2019-03-23T00:35:19.452Z,215.18
2019-03-23T00:37:24.481Z,213.62
2019-03-23T00:39:28.012Z,224.92
2019-03-23T00:41:31.616Z,308.85
2019-03-23T00:43:35.080Z,284.67
2019-03-23T00:45:38.689Z,197.53
2019-03-23T00:47:42.226Z,241.53
2019-03-23T00:49:45.761Z,293.97
2019-03-23T00:51:49.224Z,309.23
2019-03-23T00:53:53.569Z,336.18
2019-03-23T00:55:57.027Z,239.27
2019-03-23T00:58:00.497Z,274.23
2019-03-23T01:00:09.660Z,179.78
2019-03-23T01:02:13.165Z,142.37
2019-03-23T01:04:16.824Z,135.88
2019-03-23T01:06:20.598Z,117.30
2019-03-23T01:08:24.502Z,98.97
2019-03-23T01:10:28.304Z,143.00
2019-03-23T01:12:31.844Z,143.75
2019-03-23T01:14:35.314Z,130.43
2019-03-23T01:16:39.096Z,109.12
2019-03-23T01:18:42.722Z,130.97
2019-03-23T01:20:49.846Z,161.45
2019-03-23T01:22:51.691Z,182.72
2019-03-23T01:24:55.564Z,145.75
2019-03-23T01:26:59.100Z,154.30
2019-03-23T01:29:02.641Z,225.50
2019-03-23T01:31:06.433Z,250.15
2019-03-23T01:33:09.976Z,199.25
2019-03-23T01:35:13.716Z,159.57
2019-03-23T01:37:17.183Z,203.42
2019-03-23T01:39:20.825Z,216.73
2019-03-23T01:41:24.302Z,216.68
2019-03-23T01:43:28.117Z,242.90
2019-03-23T01:45:31.576Z,218.73
2019-03-23T01:47:35.112Z,171.07
2019-03-23T01:49:38.646Z,163.18
2019-03-23T01:51:43.008Z,209.65
2019-03-23T01:53:46.638Z,191.68
2019-03-23T01:55:50.184Z,197.72
2019-03-23T01:57:53.710Z,224.82
2019-03-23T01:59:57.253Z,199.32
2019-03-23T02:02:01.033Z,252.18
2019-03-23T02:04:04.580Z,195.80
2019-03-23T02:06:08.041Z,179.10
2019-03-23T02:08:12.493Z,154.23
2019-03-23T02:10:16.208Z,137.03
2019-03-23T02:12:19.677Z,182.05
2019-03-23T02:14:23.216Z,97.57
2019-03-23T02:16:26.683Z,158.70
2019-03-23T02:18:30.233Z,162.12
2019-03-23T02:20:34.003Z,172.00
2019-03-23T02:22:37.541Z,149.87
2019-03-23T02:24:41.112Z,146.32
2019-03-23T02:26:44.571Z,168.47
2019-03-23T02:28:48.412Z,186.45
2019-03-23T02:30:51.990Z,183.00
2019-03-23T02:32:55.529Z,161.28
2019-03-23T02:34:58.997Z,159.00
2019-03-23T02:37:02.541Z,187.00
2019-03-23T02:39:06.617Z,180.52
2019-03-23T02:41:10.517Z,124.60
2019-03-23T02:43:14.364Z,222.30
2019-03-23T02:45:17.944Z,241.70
2019-03-23T02:47:21.485Z,247.27
2019-03-23T02:49:24.975Z,112.65
2019-03-23T02:51:28.494Z,170.85
2019-03-23T02:53:32.037Z,208.85
2019-03-23T02:55:35.508Z,156.60
2019-03-23T02:57:39.136Z,161.62
2019-03-23T02:59:42.661Z,185.22
2019-03-23T03:01:46.133Z,205.67
2019-03-23T03:03:49.664Z,144.97
2019-03-23T03:05:53.138Z,220.57
2019-03-23T03:07:56.749Z,134.97
2019-03-23T03:10:00.423Z,139.88
2019-03-23T03:12:04.305Z,110.97
2019-03-23T03:14:08.142Z,105.40
2019-03-23T03:16:11.663Z,167.03
2019-03-23T03:18:15.261Z,141.85
2019-03-23T03:20:18.805Z,234.47
2019-03-23T03:22:22.278Z,149.87
2019-03-23T03:24:25.861Z,193.52
2019-03-23T03:26:29.329Z,210.40
2019-03-23T03:28:32.796Z,247.35
2019-03-23T03:30:36.716Z,176.85
2019-03-23T03:32:41.019Z,196.07
2019-03-23T03:34:44.661Z,193.07
2019-03-23T03:36:48.207Z,160.50
2019-03-23T03:38:51.750Z,195.97
2019-03-23T03:40:55.310Z,189.32
2019-03-23T03:42:59.001Z,185.97
2019-03-23T03:45:02.507Z,214.75
2019-03-23T03:47:06.285Z,233.28
2019-03-23T03:49:12.703Z,215.97
2019-03-23T03:51:15.446Z,190.60
2019-03-23T03:53:19.096Z,159.60
2019-03-23T03:55:22.871Z,223.25
2019-03-23T03:57:26.414Z,238.77
2019-03-23T03:59:29.958Z,197.95
2019-03-23T04:01:33.612Z,155.43
2019-03-23T04:03:37.318Z,178.10
2019-03-23T04:05:40.909Z,212.20
2019-03-23T04:07:44.561Z,211.10
2019-03-23T04:09:48.112Z,403.42
2019-03-23T04:11:52.447Z,204.35
2019-03-23T04:13:55.985Z,175.65
2019-03-23T04:15:59.878Z,185.03
2019-03-23T04:18:03.408Z,215.75
2019-03-23T04:20:08.674Z,198.75
2019-03-23T04:22:12.504Z,184.52
2019-03-23T04:24:16.041Z,190.50
2019-03-23T04:26:19.873Z,182.82
2019-03-23T04:28:23.418Z,196.98
2019-03-23T04:30:27.002Z,230.40
2019-03-23T04:32:30.493Z,206.95
2019-03-23T04:34:33.956Z,241.95
2019-03-23T04:36:37.538Z,294.30
2019-03-23T04:38:41.280Z,203.15
2019-03-23T04:40:45.089Z,242.90
2019-03-23T04:42:48.621Z,290.87
2019-03-23T04:44:52.084Z,176.68
2019-03-23T04:46:55.549Z,174.93
2019-03-23T04:48:59.016Z,179.10
2019-03-23T04:51:02.484Z,193.95
2019-03-23T04:53:06.151Z,191.30
2019-03-23T04:55:11.628Z,224.52
2019-03-23T04:57:15.876Z,195.43
2019-03-23T04:59:19.335Z,208.40
2019-03-23T05:01:22.916Z,233.87
2019-03-23T05:03:26.452Z,259.98
2019-03-23T05:05:30.662Z,223.85
2019-03-23T05:07:34.412Z,216.17
2019-03-23T05:09:38.419Z,227.50
2019-03-23T05:11:42.740Z,224.00
2019-03-23T05:13:46.204Z,213.87
2019-03-23T05:15:50.028Z,185.43
2019-03-23T05:17:53.574Z,203.50
2019-03-23T05:19:57.487Z,179.82
2019-03-23T05:22:00.965Z,248.70
2019-03-23T05:24:05.328Z,183.57
2019-03-23T05:26:08.848Z,159.07
2019-03-23T05:28:12.737Z,165.70
2019-03-23T05:30:16.210Z,170.40
2019-03-23T05:32:19.744Z,177.45
2019-03-23T05:34:23.209Z,180.27
2019-03-23T05:36:27.032Z,158.27
2019-03-23T05:38:30.568Z,195.75
2019-03-23T05:40:34.041Z,322.42
2019-03-23T05:42:37.734Z,179.10
2019-03-23T05:44:42.109Z,184.63
2019-03-23T05:46:45.683Z,315.18
2019-03-23T05:48:49.148Z,245.00
2019-03-23T05:50:52.676Z,298.02
2019-03-23T05:52:56.520Z,224.95
2019-03-23T05:54:59.986Z,185.70
2019-03-23T05:57:03.454Z,198.40
2019-03-23T05:59:07.273Z,174.32
2019-03-23T06:01:10.841Z,187.72
2019-03-23T06:03:14.599Z,170.07
2019-03-23T06:05:18.246Z,236.05
2019-03-23T06:07:21.813Z,132.35
2019-03-23T06:09:25.288Z,153.75
2019-03-23T06:11:29.209Z,121.90
2019-03-23T06:13:32.848Z,157.32
2019-03-23T06:15:36.308Z,222.70
2019-03-23T06:17:39.777Z,176.93
2019-03-23T06:19:43.242Z,137.80
2019-03-23T06:21:46.759Z,127.92
2019-03-23T06:23:50.301Z,173.90
2019-03-23T06:25:53.834Z,271.93
2019-03-23T06:27:57.436Z,172.72
2019-03-23T06:30:00.896Z,137.12
2019-03-23T06:32:04.704Z,106.50
2019-03-23T06:34:10.693Z,134.47
2019-03-23T06:36:14.177Z,107.52
2019-03-23T06:38:17.726Z,100.72
2019-03-23T06:40:21.725Z,101.75
2019-03-23T06:42:25.890Z,98.15
2019-03-23T06:44:29.964Z,91.55
2019-03-23T06:46:33.478Z,105.50
2019-03-23T06:48:37.029Z,114.35
2019-03-23T06:50:40.492Z,103.65
2019-03-23T06:52:44.234Z,105.35
2019-03-23T06:54:47.696Z,73.20
2019-03-23T06:56:51.230Z,71.28
2019-03-23T06:58:55.511Z,62.40
2019-03-23T07:00:59.192Z,59.80
2019-03-23T07:03:02.729Z,62.45
2019-03-23T07:05:08.580Z,52.90
2019-03-23T07:07:12.036Z,54.10
2019-03-23T07:09:16.429Z,54.93
2019-03-23T07:11:20.732Z,58.25
2019-03-23T07:13:24.359Z,53.00
2019-03-23T07:15:28.101Z,44.20
2019-03-23T07:17:31.571Z,52.85
2019-03-23T07:19:36.396Z,52.48
2019-03-23T07:21:40.208Z,45.35
2019-03-23T07:23:43.818Z,88.95
2019-03-23T07:25:47.367Z,51.77
2019-03-23T07:27:51.432Z,55.83
2019-03-23T07:29:54.938Z,46.83
2019-03-23T07:32:05.723Z,48.00
2019-03-23T07:34:06.129Z,46.80
2019-03-23T07:36:11.228Z,49.18
2019-03-23T07:38:15.061Z,52.00
2019-03-23T07:40:19.288Z,48.80
2019-03-23T07:42:22.756Z,46.65
2019-03-23T07:44:26.356Z,97.70
2019-03-23T07:46:30.186Z,42.27
2019-03-23T07:48:33.724Z,45.17
2019-03-23T07:50:37.561Z,47.80
2019-03-23T07:52:41.104Z,43.35
2019-03-23T07:54:44.639Z,50.90
2019-03-23T07:56:48.452Z,46.20
2019-03-23T07:58:51.921Z,36.73
2019-03-23T08:00:55.602Z,46.10
2019-03-23T08:02:59.380Z,45.33
2019-03-23T08:05:03.152Z,44.80
2019-03-23T08:07:06.956Z,41.98
2019-03-23T08:09:19.982Z,36.88
2019-03-23T08:11:15.944Z,42.15
2019-03-23T08:13:19.882Z,152.72
2019-03-23T08:15:23.441Z,40.12
2019-03-23T08:17:26.989Z,49.53
2019-03-23T08:19:30.892Z,60.15
2019-03-23T08:21:35.415Z,92.37
2019-03-23T08:23:39.217Z,168.25
2019-03-23T08:25:42.787Z,45.45
2019-03-23T08:27:46.643Z,39.67
2019-03-23T08:29:50.248Z,75.45
2019-03-23T08:31:54.534Z,42.62
2019-03-23T08:33:58.158Z,72.42
2019-03-23T08:36:01.626Z,40.65
2019-03-23T08:38:05.524Z,52.33
2019-03-23T08:40:10.228Z,45.12
2019-03-23T08:42:13.705Z,44.55
2019-03-23T08:44:17.317Z,48.30
2019-03-23T08:46:20.913Z,47.85
2019-03-23T08:48:24.372Z,76.57
2019-03-23T08:50:28.128Z,58.33
2019-03-23T08:52:31.941Z,57.95
2019-03-23T08:54:35.511Z,81.55
2019-03-23T08:56:38.985Z,52.78
2019-03-23T08:58:41.809Z,68.85
2019-03-23T09:00:45.358Z,55.70
2019-03-23T09:02:48.981Z,68.92
2019-03-23T09:04:52.544Z,50.60
2019-03-23T09:06:56.093Z,55.55
2019-03-23T09:09:00.689Z,49.50
2019-03-23T09:11:04.529Z,61.00
2019-03-23T09:13:08.058Z,49.38
2019-03-23T09:15:12.321Z,54.93
2019-03-23T09:17:15.881Z,43.15
2019-03-23T09:19:19.416Z,53.70
2019-03-23T09:21:23.229Z,42.17
2019-03-23T09:23:26.780Z,41.45
2019-03-23T09:25:31.209Z,48.15
2019-03-23T09:27:34.759Z,50.70
2019-03-23T09:29:38.532Z,40.12
2019-03-23T09:31:42.438Z,55.88
2019-03-23T09:33:46.855Z,47.03
2019-03-23T09:35:50.662Z,46.75
2019-03-23T09:37:54.575Z,69.92
2019-03-23T09:44:25.035Z,35.20
2019-03-23T09:46:28.529Z,30.37
2019-03-23T09:48:32.112Z,28.00
2019-03-23T09:54:22.892Z,28.30
2019-03-23T09:56:26.428Z,42.85
2019-03-23T09:58:29.896Z,30.08
2019-03-23T10:04:25.905Z,62.08
2019-03-23T10:06:29.445Z,28.62
2019-03-23T10:08:32.919Z,26.48
2019-03-23T10:14:26.549Z,37.65
2019-03-23T10:16:31.173Z,35.90
2019-03-23T10:18:34.716Z,32.05
2019-03-23T10:23:54.673Z,32.20
2019-03-23T10:25:58.674Z,33.15
2019-03-23T10:28:02.488Z,37.35
2019-03-23T10:30:08.568Z,38.02
2019-03-23T10:32:12.410Z,33.63
2019-03-23T10:34:15.877Z,47.00
2019-03-23T10:36:19.487Z,66.65
2019-03-23T10:38:22.952Z,34.53
2019-03-23T10:40:32.383Z,60.58
2019-03-23T10:42:31.965Z,82.42
2019-03-23T10:44:36.081Z,55.88
2019-03-23T10:46:39.952Z,47.05
2019-03-23T10:48:43.989Z,56.83
2019-03-23T10:50:47.890Z,35.88
2019-03-23T10:52:51.528Z,31.95
2019-03-23T10:54:55.036Z,23.62
2019-03-23T10:56:58.568Z,24.15
2019-03-23T10:59:02.032Z,24.37
2019-03-23T11:01:05.885Z,24.47
2019-03-23T11:03:09.828Z,28.47
2019-03-23T11:05:13.468Z,28.70
2019-03-23T11:07:16.941Z,22.25
2019-03-23T11:09:20.484Z,24.95
2019-03-23T11:11:23.944Z,25.10
2019-03-23T11:13:27.773Z,24.07
2019-03-23T11:15:31.573Z,28.02
2019-03-23T11:17:38.146Z,28.45
2019-03-23T11:19:41.684Z,22.87
2019-03-23T11:21:45.429Z,22.20
2019-03-23T11:23:49.777Z,27.60
2019-03-23T11:25:53.316Z,29.07
2019-03-23T11:27:57.044Z,28.42
2019-03-23T11:30:00.512Z,28.60
2019-03-23T11:32:04.552Z,29.95
2019-03-23T11:34:17.522Z,26.35
2019-03-23T11:36:13.647Z,26.52
2019-03-23T11:38:17.388Z,27.93
2019-03-23T11:40:21.196Z,27.62
2019-03-23T11:42:25.000Z,24.35
2019-03-23T11:44:28.926Z,30.70
2019-03-23T11:46:32.790Z,24.47
2019-03-23T11:48:37.196Z,23.83
2019-03-23T11:50:40.777Z,20.25
2019-03-23T11:52:44.319Z,21.35
2019-03-23T11:54:47.863Z,22.35
2019-03-23T11:56:51.469Z,23.38
2019-03-23T11:58:55.897Z,22.17
2019-03-23T12:00:59.378Z,21.17
2019-03-23T12:03:03.062Z,21.15
2019-03-23T12:05:08.418Z,24.12
2019-03-23T12:07:11.988Z,18.20
2019-03-23T12:09:15.513Z,21.02
2019-03-23T12:11:18.976Z,18.85
2019-03-23T12:13:22.698Z,21.42
2019-03-23T12:15:26.173Z,21.90
2019-03-23T12:17:29.744Z,18.67
2019-03-23T12:19:33.820Z,19.75
2019-03-23T12:21:37.295Z,20.43
2019-03-23T12:23:41.144Z,23.22
2019-03-23T12:25:44.976Z,19.30
2019-03-23T12:27:48.878Z,24.60
2019-03-23T12:29:53.240Z,23.18
2019-03-23T12:31:57.172Z,22.40
2019-03-23T12:34:00.802Z,18.95
2019-03-23T12:36:04.452Z,20.82
2019-03-23T12:38:08.272Z,71.25
2019-03-23T12:40:12.388Z,29.65
2019-03-23T12:42:16.288Z,23.90
2019-03-23T12:44:20.621Z,21.70
2019-03-23T12:46:25.014Z,26.17
2019-03-23T12:48:28.548Z,19.57
2019-03-23T12:50:32.021Z,20.68
2019-03-23T12:52:35.746Z,23.38
2019-03-23T12:54:40.178Z,22.27
2019-03-23T12:56:43.784Z,18.98
2019-03-23T12:58:47.478Z,23.25
2019-03-23T13:00:51.053Z,21.10
2019-03-23T13:02:54.900Z,18.37
2019-03-23T13:04:58.440Z,19.98
2019-03-23T13:07:01.914Z,18.70
2019-03-23T13:09:07.244Z,20.88
2019-03-23T13:11:11.540Z,22.75
2019-03-23T13:13:15.003Z,18.52
2019-03-23T13:15:18.805Z,22.98
2019-03-23T13:17:22.393Z,23.85
2019-03-23T13:19:25.924Z,26.90
2019-03-23T13:23:32.978Z,17.65
2019-03-23T13:25:36.881Z,20.52
2019-03-23T13:27:42.161Z,18.02
2019-03-23T13:29:45.613Z,21.02
2019-03-23T13:31:49.154Z,23.35
2019-03-23T13:33:52.851Z,24.10
2019-03-23T13:35:56.790Z,27.75
2019-03-23T13:38:00.793Z,22.20
2019-03-23T13:40:09.824Z,19.57
2019-03-23T13:42:13.297Z,28.77
2019-03-23T13:44:17.117Z,21.93
2019-03-23T13:46:22.017Z,25.00
2019-03-23T13:48:25.480Z,30.37
2019-03-23T13:50:29.788Z,34.75
2019-03-23T13:52:33.654Z,34.73
2019-03-23T13:54:37.230Z,29.95
2019-03-23T13:56:40.824Z,32.30
2019-03-23T13:58:44.288Z,26.55
2019-03-23T14:00:48.045Z,25.17
2019-03-23T14:02:51.841Z,24.72
2019-03-23T14:04:55.653Z,22.27
2019-03-23T14:06:59.556Z,23.22
2019-03-23T14:09:04.215Z,22.73
2019-03-23T14:11:07.803Z,21.90
2019-03-23T14:13:11.277Z,30.48
2019-03-23T14:15:15.846Z,25.48
2019-03-23T14:17:19.597Z,23.87
2019-03-23T14:19:23.132Z,27.87
2019-03-23T14:21:26.698Z,24.05
2019-03-23T14:23:30.169Z,25.88
2019-03-23T14:25:35.436Z,30.35
2019-03-23T14:27:38.897Z,27.00
2019-03-23T14:29:42.377Z,34.27
2019-03-23T14:31:45.929Z,22.62
2019-03-23T14:33:50.304Z,24.12
2019-03-23T14:35:53.781Z,23.83
2019-03-23T14:37:57.717Z,24.30
2019-03-23T14:40:02.133Z,22.67
2019-03-23T14:42:05.600Z,28.40
2019-03-23T14:44:09.944Z,26.48
2019-03-23T14:46:15.359Z,25.27
2019-03-23T14:48:19.125Z,36.83
2019-03-23T14:50:22.864Z,27.55
2019-03-23T14:52:26.409Z,32.80
2019-03-23T14:54:30.783Z,25.25
2019-03-23T14:56:34.983Z,24.18
2019-03-23T14:58:38.546Z,25.25
2019-03-23T15:00:42.013Z,55.60
2019-03-23T15:02:46.293Z,33.67
2019-03-23T15:04:50.632Z,29.70
2019-03-23T15:06:54.100Z,27.50
2019-03-23T15:08:57.560Z,28.25
2019-03-23T15:11:01.241Z,26.57
2019-03-23T15:13:04.768Z,28.75
2019-03-23T15:15:09.392Z,23.85
2019-03-23T15:17:12.864Z,81.08
2019-03-23T15:19:16.401Z,51.28
2019-03-23T15:21:20.435Z,50.20
2019-03-23T15:23:23.979Z,34.18
2019-03-23T15:25:28.111Z,36.83
2019-03-23T15:27:32.528Z,32.83
2019-03-23T15:29:36.361Z,33.48
2019-03-23T15:31:40.889Z,31.95
2019-03-23T15:33:44.781Z,38.78
2019-03-23T15:35:48.977Z,56.45
2019-03-23T15:37:52.878Z,36.40
2019-03-23T15:39:56.478Z,37.70
2019-03-23T15:42:00.272Z,24.40
2019-03-23T15:44:03.908Z,40.67
2019-03-23T15:46:09.607Z,49.42
2019-03-23T15:48:13.153Z,37.42
2019-03-23T15:50:17.019Z,32.98
2019-03-23T15:52:20.560Z,25.75
2019-03-23T15:54:24.156Z,24.92
2019-03-23T15:56:27.624Z,25.88
2019-03-23T15:58:31.437Z,28.07
2019-03-23T16:00:34.902Z,30.75
2019-03-23T16:02:38.374Z,29.98
2019-03-23T16:04:42.255Z,37.58
2019-03-23T16:06:45.730Z,46.37
2019-03-23T16:08:49.260Z,34.45
2019-03-23T16:10:53.121Z,41.13
2019-03-23T16:12:56.660Z,48.87
2019-03-23T16:15:00.175Z,38.70
2019-03-23T16:17:04.096Z,39.73
2019-03-23T16:19:07.817Z,42.88
2019-03-23T16:21:12.213Z,60.78
2019-03-23T16:23:16.632Z,580.90
2019-03-23T16:25:20.108Z,316.82
2019-03-23T16:27:23.657Z,179.42
2019-03-23T16:29:28.054Z,120.77
2019-03-23T16:31:31.526Z,127.97
2019-03-23T16:33:35.363Z,131.32
2019-03-23T16:35:38.992Z,140.18
2019-03-23T16:37:42.978Z,178.55
2019-03-23T16:39:46.444Z,233.43
2019-03-23T16:41:50.264Z,129.65
2019-03-23T16:43:53.838Z,99.50
2019-03-23T16:45:57.379Z,242.32
2019-03-23T16:48:01.742Z,114.00
2019-03-23T16:50:07.614Z,199.68
2019-03-23T16:52:11.533Z,323.80
2019-03-23T16:54:15.445Z,509.87
2019-03-23T16:56:18.993Z,392.05
2019-03-23T16:58:22.568Z,345.88
2019-03-23T17:00:33.797Z,276.70
2019-03-23T17:02:37.708Z,156.32
2019-03-23T17:04:41.608Z,66.40
2019-03-23T17:06:46.547Z,225.82
2019-03-23T17:08:50.437Z,330.98
2019-03-23T17:10:54.452Z,250.65
2019-03-23T17:12:58.034Z,978.88
2019-03-23T17:15:01.580Z,839.93
2019-03-23T17:17:06.039Z,678.33
2019-03-23T17:19:09.598Z,1280.08
2019-03-23T17:21:13.222Z,841.15
2019-03-23T17:23:16.692Z,731.17
2019-03-23T17:25:20.292Z,1424.75
2019-03-23T17:27:24.129Z,1013.25
2019-03-23T17:29:29.467Z,720.92
2019-03-23T17:31:33.882Z,150.93
2019-03-23T17:33:37.710Z,132.90
2019-03-23T17:35:41.181Z,237.30
2019-03-23T17:37:45.009Z,342.43
2019-03-23T17:39:49.400Z,491.32
2019-03-23T17:41:52.945Z,406.10
2019-03-23T17:43:56.832Z,453.10
2019-03-23T17:46:00.676Z,564.67
2019-03-23T17:48:05.045Z,503.38
2019-03-23T17:50:09.466Z,347.25
2019-03-23T17:52:13.465Z,340.30
2019-03-23T17:54:16.940Z,181.20
2019-03-23T17:56:21.354Z,117.82
2019-03-23T17:58:25.285Z,99.40
2019-03-23T18:00:30.236Z,110.05
2019-03-23T18:02:34.016Z,102.20
2019-03-23T18:04:37.561Z,126.12
2019-03-23T18:06:41.214Z,158.75
2019-03-23T18:08:44.757Z,201.05
2019-03-23T18:10:48.400Z,197.07
2019-03-23T18:12:52.310Z,312.12
2019-03-23T18:14:55.850Z,478.62
2019-03-23T18:16:59.837Z,364.52
2019-03-23T18:19:03.713Z,237.48
2019-03-23T18:21:07.836Z,185.65
2019-03-23T18:23:11.785Z,156.75
2019-03-23T18:25:15.589Z,185.05
2019-03-23T18:27:19.336Z,269.32
2019-03-23T18:29:25.381Z,525.48
2019-03-23T18:31:29.292Z,702.83
2019-03-23T18:33:33.597Z,598.88
2019-03-23T18:35:38.800Z,651.13
2019-03-23T18:37:42.348Z,615.50
2019-03-23T18:39:46.849Z,681.80
2019-03-23T18:41:50.696Z,734.75
2019-03-23T18:43:55.816Z,692.50
2019-03-23T18:45:59.817Z,727.42
2019-03-23T18:48:07.010Z,647.73
2019-03-23T18:50:11.096Z,560.92
2019-03-23T18:52:14.569Z,575.05
2019-03-23T18:54:18.420Z,452.82
2019-03-23T18:56:22.297Z,300.15
2019-03-23T18:58:26.789Z,255.92
2019-03-23T19:00:37.786Z,178.07
2019-03-23T19:02:43.329Z,314.20
2019-03-23T19:04:46.807Z,267.48
2019-03-23T19:06:50.344Z,190.90
2019-03-23T19:08:53.812Z,254.28
2019-03-23T19:10:58.108Z,263.73
2019-03-23T19:13:01.669Z,141.90
2019-03-23T19:15:07.993Z,378.62
2019-03-23T19:17:13.144Z,414.60
2019-03-23T19:19:17.581Z,213.30
2019-03-23T19:21:21.441Z,152.00
2019-03-23T19:23:25.223Z,149.68
2019-03-23T19:25:28.868Z,114.42
2019-03-23T19:27:33.233Z,219.30
2019-03-23T19:29:37.065Z,167.37
2019-03-23T19:31:40.612Z,128.55
2019-03-23T19:33:44.253Z,143.70
2019-03-23T19:35:48.078Z,137.68
2019-03-23T19:37:52.400Z,137.40
2019-03-23T19:39:56.504Z,201.35
2019-03-23T19:42:00.300Z,159.70
2019-03-23T19:44:04.877Z,121.00
2019-03-23T19:46:08.737Z,131.45
2019-03-23T19:48:12.280Z,140.77
2019-03-23T19:50:16.553Z,180.85
2019-03-23T19:52:21.664Z,130.95
2019-03-23T19:54:25.248Z,205.05
2019-03-23T19:56:28.748Z,150.87
2019-03-23T19:58:32.328Z,84.83
2019-03-23T20:00:35.893Z,115.57
2019-03-23T20:02:39.902Z,131.60
2019-03-23T20:04:43.386Z,420.38
2019-03-23T20:06:46.852Z,83.35
2019-03-23T20:08:50.764Z,91.50
2019-03-23T20:10:54.265Z,87.02
2019-03-23T20:12:57.788Z,109.20
2019-03-23T20:15:01.253Z,107.45
2019-03-23T20:17:04.799Z,199.97
2019-03-23T20:19:08.756Z,161.62
2019-03-23T20:21:12.736Z,223.78
2019-03-23T20:23:16.273Z,214.50
2019-03-23T20:25:19.941Z,437.85
2019-03-23T20:27:23.563Z,747.83
2019-03-23T20:29:27.405Z,197.00
2019-03-23T20:31:31.108Z,296.90
2019-03-23T20:33:34.937Z,242.55
2019-03-23T20:35:38.590Z,249.07
2019-03-23T20:37:42.136Z,259.40
2019-03-23T20:39:46.040Z,287.75
2019-03-23T20:41:49.625Z,256.80
2019-03-23T20:43:53.438Z,233.07
2019-03-23T20:45:58.232Z,284.87
2019-03-23T20:48:02.202Z,230.35
2019-03-23T20:50:07.617Z,205.45
2019-03-23T20:52:11.148Z,208.53
2019-03-23T20:54:14.961Z,183.65
2019-03-23T20:56:18.503Z,177.12
2019-03-23T20:58:22.617Z,141.90
2019-03-23T21:00:26.553Z,163.25
2019-03-23T21:02:30.479Z,156.85
2019-03-23T21:04:34.008Z,175.72
2019-03-23T21:06:37.548Z,173.28
2019-03-23T21:08:41.305Z,181.40
2019-03-23T21:10:45.140Z,165.07
2019-03-23T21:12:48.604Z,154.32
2019-03-23T21:14:52.192Z,435.20
2019-03-23T21:16:57.129Z,169.32
2019-03-23T21:19:00.941Z,161.57
2019-03-23T21:21:04.408Z,175.65
2019-03-23T21:23:08.729Z,146.53
2019-03-23T21:25:13.477Z,162.60
2019-03-23T21:27:17.021Z,172.37
2019-03-23T21:29:20.484Z,190.65
2019-03-23T21:31:24.952Z,195.53
2019-03-23T21:33:32.181Z,182.75
2019-03-23T21:35:33.683Z,181.28
2019-03-23T21:37:37.225Z,167.00
2019-03-23T21:39:40.755Z,165.45
2019-03-23T21:41:44.630Z,178.72
2019-03-23T21:43:48.448Z,186.00
2019-03-23T21:45:52.416Z,183.20
2019-03-23T21:47:55.956Z,195.10
2019-03-23T21:49:59.523Z,192.47
2019-03-23T21:52:03.067Z,178.45
2019-03-23T21:54:06.620Z,188.55
2019-03-23T21:56:10.200Z,211.75
2019-03-23T21:58:14.012Z,240.28
2019-03-23T22:00:31.280Z,245.97
2019-03-23T22:02:35.079Z,297.65
2019-03-23T22:04:38.946Z,411.08
2019-03-23T22:06:42.734Z,217.57
2019-03-23T22:08:46.569Z,202.78
2019-03-23T22:10:50.116Z,181.37
2019-03-23T22:12:53.756Z,180.40
2019-03-23T22:14:58.814Z,171.87
2019-03-23T22:17:02.567Z,161.25
2019-03-23T22:19:06.985Z,129.38
2019-03-23T22:21:12.793Z,126.53
2019-03-23T22:23:17.904Z,180.30
2019-03-23T22:25:21.494Z,181.72
2019-03-23T22:27:25.598Z,166.10
2019-03-23T22:29:29.147Z,199.75
2019-03-23T22:31:32.685Z,155.07
2019-03-23T22:33:36.559Z,194.05
2019-03-23T22:35:40.469Z,170.30
2019-03-23T22:37:44.008Z,157.25
2019-03-23T22:39:47.480Z,181.07
2019-03-23T22:41:51.368Z,186.47
2019-03-23T22:43:54.919Z,194.17
2019-03-23T22:45:58.423Z,194.35
2019-03-23T22:48:01.992Z,174.57
2019-03-23T22:50:07.720Z,188.25
2019-03-23T22:52:11.200Z,252.00
2019-03-23T22:54:14.824Z,225.32
2019-03-23T22:56:18.593Z,208.25
2019-03-23T22:58:22.064Z,190.77
2019-03-23T23:00:27.312Z,186.18
2019-03-23T23:02:30.850Z,187.77
2019-03-23T23:04:34.393Z,178.12
2019-03-23T23:06:37.932Z,170.87
2019-03-23T23:08:41.398Z,158.52
2019-03-23T23:10:44.867Z,172.47
2019-03-23T23:12:48.400Z,169.32
2019-03-23T23:14:53.733Z,163.95
2019-03-23T23:16:57.191Z,153.50
2019-03-23T23:19:01.624Z,146.43
2019-03-23T23:21:05.511Z,137.28
2019-03-23T23:23:09.041Z,155.90
2019-03-23T23:25:12.577Z,167.05
2019-03-23T23:27:16.337Z,144.93
2019-03-23T23:29:19.799Z,136.60
2019-03-23T23:31:23.267Z,162.62
2019-03-23T23:33:27.137Z,205.90
2019-03-23T23:35:30.596Z,173.45
2019-03-23T23:37:34.620Z,200.95
2019-03-23T23:39:38.169Z,158.52
2019-03-23T23:41:41.642Z,152.45
2019-03-23T23:43:45.208Z,163.50
2019-03-23T23:45:48.672Z,161.62
2019-03-23T23:47:52.139Z,159.10
2019-03-23T23:49:55.681Z,159.87
2019-03-23T23:51:59.517Z,156.05
2019-03-23T23:54:02.989Z,149.47
2019-03-23T23:56:06.628Z,150.57
2019-03-23T23:58:10.098Z,162.50
